Time,TemperatureF,DewpointF,PressureIn,WindDirection,WindDirectionDegrees,WindSpeedMPH,WindSpeedGustMPH,Humidity,HourlyPrecipIn,Conditions,Clouds,dailyrainin,SoftwareType,DateUTC
2013-04-23 00:01:00,51.3,22.4,30.29,SW,235,3.6,3.6,32,0.00,,,0.00,VWS V14.00,2013-04-23 04:01:00,
2013-04-23 00:02:00,51.3,22.4,30.29,WSW,238,3.6,3.6,32,0.00,,,0.00,VWS V14.00,2013-04-23 04:02:00,
2013-04-23 00:07:00,51.3,23.2,30.29,SW,230,3.1,3.1,33,0.00,,,0.00,VWS V14.00,2013-04-23 04:07:00,
2013-04-23 00:12:00,51.1,23.0,30.29,SW,234,4.0,4.0,33,0.00,,,0.00,VWS V14.00,2013-04-23 04:12:00,
2013-04-23 00:17:00,51.1,23.0,30.29,SW,235,3.6,4.0,33,0.00,,,0.00,VWS V14.00,2013-04-23 04:17:00,
2013-04-23 00:22:00,51.1,23.0,30.29,WSW,238,4.0,4.0,33,0.00,,,0.00,VWS V14.00,2013-04-23 04:22:00,
2013-04-23 00:27:00,51.1,23.7,30.29,WSW,256,3.6,3.6,34,0.00,,,0.00,VWS V14.00,2013-04-23 04:27:00,
2013-04-23 00:32:00,50.9,23.5,30.29,WSW,240,4.0,4.5,34,0.00,,,0.00,VWS V14.00,2013-04-23 04:32:00,
2013-04-23 00:37:00,50.9,23.5,30.29,SW,236,3.6,4.0,34,0.00,,,0.00,VWS V14.00,2013-04-23 04:37:00,
2013-04-23 00:42:00,50.7,23.4,30.29,SW,231,3.1,3.1,34,0.00,,,0.00,VWS V14.00,2013-04-23 04:42:00,
2013-04-23 00:47:00,50.7,23.4,30.29,SW,225,3.1,3.1,34,0.00,,,0.00,VWS V14.00,2013-04-23 04:47:00,
2013-04-23 00:52:00,50.7,24.1,30.29,SW,228,0.0,0.0,35,0.00,,,0.00,VWS V14.00,2013-04-23 04:52:00,
2013-04-23 00:57:00,50.7,24.1,30.29,WSW,240,2.7,2.7,35,0.00,,,0.00,VWS V14.00,2013-04-23 04:57:00,
2013-04-23 01:02:00,50.7,24.1,30.29,SW,227,3.6,3.6,35,0.00,,,0.00,VWS V14.00,2013-04-23 05:02:00,
2013-04-23 01:07:00,50.5,24.6,30.29,SW,225,3.1,3.1,36,0.00,,,0.00,VWS V14.00,2013-04-23 05:07:00,
2013-04-23 01:12:00,50.4,24.4,30.29,WSW,249,5.4,5.4,36,0.00,,,0.00,VWS V14.00,2013-04-23 05:12:00,
2013-04-23 01:17:00,50.4,24.4,30.29,SW,220,3.6,3.6,36,0.00,,,0.00,VWS V14.00,2013-04-23 05:17:00,
2013-04-23 01:22:00,50.2,24.3,30.29,WSW,242,4.9,4.9,36,0.00,,,0.00,VWS V14.00,2013-04-23 05:22:00,
2013-04-23 01:27:00,50.2,24.3,30.29,SW,233,4.0,4.0,36,0.00,,,0.00,VWS V14.00,2013-04-23 05:27:00,
2013-04-23 01:32:00,50.0,24.8,30.29,SW,223,3.6,3.6,37,0.00,,,0.00,VWS V14.00,2013-04-23 05:32:00,
2013-04-23 01:37:00,50.0,24.8,30.29,WSW,244,4.0,5.8,37,0.00,,,0.00,VWS V14.00,2013-04-23 05:37:00,
2013-04-23 01:42:00,50.0,24.8,30.29,WSW,242,2.7,4.0,37,0.00,,,0.00,VWS V14.00,2013-04-23 05:42:00,
2013-04-23 01:47:00,49.8,24.6,30.29,SW,233,3.1,3.6,37,0.00,,,0.00,VWS V14.00,2013-04-23 05:47:00,
2013-04-23 01:52:00,49.8,25.2,30.29,SW,229,3.1,3.6,38,0.00,,,0.00,VWS V14.00,2013-04-23 05:52:00,
2013-04-23 01:57:00,49.6,25.1,30.29,SW,228,3.1,3.6,38,0.00,,,0.00,VWS V14.00,2013-04-23 05:57:00,
2013-04-23 02:02:00,49.6,25.1,30.29,SW,229,3.1,4.9,38,0.00,,,0.00,VWS V14.00,2013-04-23 06:02:00,
2013-04-23 02:07:00,49.6,25.1,30.29,SW,233,2.7,3.1,38,0.00,,,0.00,VWS V14.00,2013-04-23 06:07:00,
2013-04-23 02:12:00,49.6,25.1,30.29,SW,233,3.6,3.6,38,0.00,,,0.00,VWS V14.00,2013-04-23 06:12:00,
2013-04-23 02:17:00,49.5,24.9,30.29,SW,234,3.6,3.6,38,0.00,,,0.00,VWS V14.00,2013-04-23 06:17:00,
2013-04-23 02:22:00,49.5,24.9,30.29,SW,234,0.0,0.0,38,0.00,,,0.00,VWS V14.00,2013-04-23 06:22:00,
2013-04-23 02:27:00,49.5,24.9,30.29,SW,234,2.2,2.7,38,0.00,,,0.00,VWS V14.00,2013-04-23 06:27:00,
2013-04-23 02:32:00,49.5,25.5,30.29,SW,234,2.7,2.7,39,0.00,,,0.00,VWS V14.00,2013-04-23 06:32:00,
2013-04-23 02:37:00,49.5,25.5,30.26,SW,223,3.6,3.6,39,0.00,,,0.00,VWS V14.00,2013-04-23 06:37:00,
2013-04-23 02:42:00,49.5,25.5,30.26,SW,230,3.1,3.1,39,0.00,,,0.00,VWS V14.00,2013-04-23 06:42:00,
2013-04-23 02:47:00,49.3,25.4,30.26,SW,220,3.6,4.0,39,0.00,,,0.00,VWS V14.00,2013-04-23 06:47:00,
2013-04-23 02:52:00,49.3,25.4,30.26,SW,235,0.0,2.7,39,0.00,,,0.00,VWS V14.00,2013-04-23 06:52:00,
2013-04-23 02:57:00,49.1,25.2,30.26,SW,235,2.2,3.1,39,0.00,,,0.00,VWS V14.00,2013-04-23 06:57:00,
2013-04-23 03:02:00,49.1,25.2,30.26,SW,235,2.7,3.1,39,0.00,,,0.00,VWS V14.00,2013-04-23 07:02:00,
2013-04-23 03:07:00,49.1,25.8,30.26,SW,235,0.0,0.0,40,0.00,,,0.00,VWS V14.00,2013-04-23 07:07:00,
2013-04-23 03:12:00,49.1,25.8,30.26,SW,226,2.7,4.0,40,0.00,,,0.00,VWS V14.00,2013-04-23 07:12:00,
2013-04-23 03:17:00,49.1,25.8,30.26,SW,226,0.0,0.0,40,0.00,,,0.00,VWS V14.00,2013-04-23 07:17:00,
2013-04-23 03:22:00,49.1,25.8,30.26,SW,226,0.0,0.0,40,0.00,,,0.00,VWS V14.00,2013-04-23 07:22:00,
2013-04-23 03:27:00,48.9,25.7,30.26,SW,226,2.7,4.0,40,0.00,,,0.00,VWS V14.00,2013-04-23 07:27:00,
2013-04-23 03:32:00,48.9,25.7,30.26,SW,226,4.0,4.0,40,0.00,,,0.00,VWS V14.00,2013-04-23 07:32:00,
2013-04-23 03:37:00,48.7,25.5,30.26,SW,228,3.1,3.1,40,0.00,,,0.00,VWS V14.00,2013-04-23 07:37:00,
2013-04-23 03:42:00,48.7,25.5,30.26,SW,228,2.7,3.1,40,0.00,,,0.00,VWS V14.00,2013-04-23 07:42:00,
2013-04-23 03:47:00,48.7,26.1,30.26,SW,228,0.0,0.0,41,0.00,,,0.00,VWS V14.00,2013-04-23 07:47:00,
2013-04-23 03:52:00,48.7,26.1,30.26,SW,228,0.0,0.0,41,0.00,,,0.00,VWS V14.00,2013-04-23 07:52:00,
2013-04-23 03:57:00,48.7,26.1,30.26,SW,228,0.0,0.0,41,0.00,,,0.00,VWS V14.00,2013-04-23 07:57:00,
2013-04-23 04:02:00,48.7,26.1,30.26,SW,228,0.0,0.0,41,0.00,,,0.00,VWS V14.00,2013-04-23 08:02:00,
2013-04-23 04:07:00,48.7,26.1,30.26,SW,232,3.6,3.6,41,0.00,,,0.00,VWS V14.00,2013-04-23 08:07:00,
2013-04-23 04:12:00,48.6,26.0,30.26,SW,223,2.7,2.7,41,0.00,,,0.00,VWS V14.00,2013-04-23 08:12:00,
2013-04-23 04:17:00,48.6,26.5,30.26,SW,223,0.0,0.0,42,0.00,,,0.00,VWS V14.00,2013-04-23 08:17:00,
2013-04-23 04:22:00,48.6,26.5,30.26,SW,221,0.0,0.0,42,0.00,,,0.00,VWS V14.00,2013-04-23 08:22:00,
2013-04-23 04:27:00,48.4,26.4,30.26,SW,229,2.7,3.1,42,0.00,,,0.00,VWS V14.00,2013-04-23 08:27:00,
2013-04-23 04:32:00,48.4,26.4,30.26,SW,229,0.0,0.0,42,0.00,,,0.00,VWS V14.00,2013-04-23 08:32:00,
2013-04-23 04:37:00,48.2,26.2,30.26,SW,225,0.0,0.0,42,0.00,,,0.00,VWS V14.00,2013-04-23 08:37:00,
2013-04-23 04:42:00,48.2,26.8,30.26,SW,225,0.0,0.0,43,0.00,,,0.00,VWS V14.00,2013-04-23 08:42:00,
2013-04-23 04:47:00,48.2,26.8,30.26,SW,218,2.2,2.7,43,0.00,,,0.00,VWS V14.00,2013-04-23 08:47:00,
2013-04-23 04:52:00,48.2,26.8,30.26,SW,222,3.6,4.0,43,0.00,,,0.00,VWS V14.00,2013-04-23 08:52:00,
2013-04-23 04:58:00,48.0,27.2,30.26,SW,222,2.2,3.1,44,0.00,,,0.00,VWS V14.00,2013-04-23 08:58:00,
2013-04-23 05:03:00,48.0,27.2,30.26,SW,226,2.7,4.0,44,0.00,,,0.00,VWS V14.00,2013-04-23 09:03:00,
2013-04-23 05:07:00,48.0,27.2,30.26,SW,233,2.7,2.7,44,0.00,,,0.00,VWS V14.00,2013-04-23 09:07:00,
2013-04-23 05:12:00,47.8,27.0,30.26,SW,227,3.1,3.6,44,0.00,,,0.00,VWS V14.00,2013-04-23 09:12:00,
2013-04-23 05:18:00,47.8,27.0,30.26,SSW,211,2.7,2.7,44,0.00,,,0.00,VWS V14.00,2013-04-23 09:18:00,
2013-04-23 05:22:00,47.8,27.0,30.26,SW,224,0.0,0.0,44,0.00,,,0.00,VWS V14.00,2013-04-23 09:22:00,
2013-04-23 05:27:00,47.8,27.0,30.26,SW,228,3.1,3.1,44,0.00,,,0.00,VWS V14.00,2013-04-23 09:27:00,
2013-04-23 05:32:00,47.8,27.5,30.26,SW,214,3.1,3.1,45,0.00,,,0.00,VWS V14.00,2013-04-23 09:32:00,
2013-04-23 05:37:00,47.7,27.4,30.23,SW,219,2.2,4.0,45,0.00,,,0.00,VWS V14.00,2013-04-23 09:37:00,
2013-04-23 05:43:00,47.7,27.4,30.23,SW,219,2.2,3.1,45,0.00,,,0.00,VWS V14.00,2013-04-23 09:43:00,
2013-04-23 05:48:00,47.7,27.4,30.23,SW,225,0.0,0.0,45,0.00,,,0.00,VWS V14.00,2013-04-23 09:48:00,
2013-04-23 05:53:00,47.7,27.4,30.23,SW,228,2.2,2.2,45,0.00,,,0.00,VWS V14.00,2013-04-23 09:53:00,
2013-04-23 05:58:00,47.7,27.9,30.23,SSW,201,2.7,4.0,46,0.00,,,0.00,VWS V14.00,2013-04-23 09:58:00,
2013-04-23 06:03:00,47.5,28.3,30.23,SW,220,2.7,3.6,47,0.00,,,0.00,VWS V14.00,2013-04-23 10:03:00,
2013-04-23 06:08:00,47.3,28.1,30.26,SW,219,2.7,2.7,47,0.00,,,0.00,VWS V14.00,2013-04-23 10:08:00,
2013-04-23 06:13:00,47.1,28.5,30.26,SW,219,0.0,0.0,48,0.00,,,0.00,VWS V14.00,2013-04-23 10:13:00,
2013-04-23 06:18:00,46.9,28.8,30.26,SW,219,0.0,0.0,49,0.00,,,0.00,VWS V14.00,2013-04-23 10:18:00,
2013-04-23 06:23:00,46.8,28.6,30.26,SW,225,2.2,2.7,49,0.00,,,0.00,VWS V14.00,2013-04-23 10:23:00,
2013-04-23 06:28:00,46.8,29.1,30.26,SW,225,0.0,0.0,50,0.00,,,0.00,VWS V14.00,2013-04-23 10:28:00,
2013-04-23 06:33:00,46.8,29.1,30.26,SW,216,0.0,0.0,50,0.00,,,0.00,VWS V14.00,2013-04-23 10:33:00,
2013-04-23 06:38:00,46.8,29.1,30.23,SW,216,0.0,0.0,50,0.00,,,0.00,VWS V14.00,2013-04-23 10:38:00,
2013-04-23 06:43:00,46.8,29.1,30.23,SW,223,2.2,2.2,50,0.00,,,0.00,VWS V14.00,2013-04-23 10:43:00,
2013-04-23 06:48:00,46.8,29.1,30.23,SW,223,3.1,3.1,50,0.00,,,0.00,VWS V14.00,2013-04-23 10:48:00,
2013-04-23 06:53:00,46.8,29.1,30.23,SW,223,2.2,2.7,50,0.00,,,0.00,VWS V14.00,2013-04-23 10:53:00,
2013-04-23 06:58:00,46.8,29.1,30.23,SW,223,0.0,0.0,50,0.00,,,0.00,VWS V14.00,2013-04-23 10:58:00,
2013-04-23 07:03:00,46.8,29.1,30.23,SW,229,2.7,3.1,50,0.00,,,0.00,VWS V14.00,2013-04-23 11:03:00,
2013-04-23 07:08:00,46.8,29.6,30.23,SW,229,0.0,0.0,51,0.00,,,0.00,VWS V14.00,2013-04-23 11:08:00,
2013-04-23 07:13:00,46.8,29.1,30.23,SSW,213,0.0,0.0,50,0.00,,,0.00,VWS V14.00,2013-04-23 11:13:00,
2013-04-23 07:18:00,46.9,29.3,30.23,SW,219,0.0,0.0,50,0.00,,,0.00,VWS V14.00,2013-04-23 11:18:00,
2013-04-23 07:23:00,46.9,29.3,30.26,SW,219,0.0,0.0,50,0.00,,,0.00,VWS V14.00,2013-04-23 11:23:00,
2013-04-23 07:28:00,47.1,29.5,30.26,SW,224,0.0,0.0,50,0.00,,,0.00,VWS V14.00,2013-04-23 11:28:00,
2013-04-23 07:33:00,47.3,29.6,30.26,SW,217,0.0,0.0,50,0.00,,,0.00,VWS V14.00,2013-04-23 11:33:00,
2013-04-23 07:38:00,47.5,29.3,30.23,SW,227,0.0,0.0,49,0.00,,,0.00,VWS V14.00,2013-04-23 11:38:00,
2013-04-23 07:43:00,47.7,29.5,30.23,SW,227,0.0,0.0,49,0.00,,,0.00,VWS V14.00,2013-04-23 11:43:00,
2013-04-23 07:48:00,47.8,29.6,30.23,SW,215,0.0,0.0,49,0.00,,,0.00,VWS V14.00,2013-04-23 11:48:00,
2013-04-23 07:53:00,48.0,29.3,30.26,SW,236,4.0,4.0,48,0.00,,,0.00,VWS V14.00,2013-04-23 11:53:00,
2013-04-23 07:58:00,48.2,28.9,30.26,SW,234,3.1,4.0,47,0.00,,,0.00,VWS V14.00,2013-04-23 11:58:00,
2013-04-23 08:03:00,48.2,28.9,30.26,SW,235,2.7,2.7,47,0.00,,,0.00,VWS V14.00,2013-04-23 12:03:00,
2013-04-23 08:08:00,48.2,28.9,30.26,SW,231,3.1,3.6,47,0.00,,,0.00,VWS V14.00,2013-04-23 12:08:00,
2013-04-23 08:13:00,48.4,28.6,30.26,SW,229,4.0,4.0,46,0.00,,,0.00,VWS V14.00,2013-04-23 12:13:00,
2013-04-23 08:18:00,48.6,28.7,30.26,SW,234,3.6,3.6,46,0.00,,,0.00,VWS V14.00,2013-04-23 12:18:00,
2013-04-23 08:23:00,48.7,28.9,30.26,SW,215,2.7,2.7,46,0.00,,,0.00,VWS V14.00,2013-04-23 12:23:00,
2013-04-23 08:28:00,49.1,29.2,30.26,SW,230,0.0,0.0,46,0.00,,,0.00,VWS V14.00,2013-04-23 12:28:00,
2013-04-23 08:33:00,49.3,28.3,30.26,SW,227,3.1,3.6,44,0.00,,,0.00,VWS V14.00,2013-04-23 12:33:00,
2013-04-23 08:38:00,49.3,28.3,30.23,WSW,243,0.0,3.6,44,0.00,,,0.00,VWS V14.00,2013-04-23 12:38:00,
2013-04-23 08:43:00,49.5,27.9,30.23,SW,234,2.7,3.6,43,0.00,,,0.00,VWS V14.00,2013-04-23 12:43:00,
2013-04-23 08:48:00,49.5,27.9,30.23,SW,231,2.7,2.7,43,0.00,,,0.00,VWS V14.00,2013-04-23 12:48:00,
2013-04-23 08:53:00,49.6,28.1,30.23,SW,231,2.7,3.1,43,0.00,,,0.00,VWS V14.00,2013-04-23 12:53:00,
2013-04-23 08:58:00,49.8,28.2,30.23,SW,231,0.0,0.0,43,0.00,,,0.00,VWS V14.00,2013-04-23 12:58:00,
2013-04-23 09:03:00,50.0,27.8,30.23,SW,232,0.0,0.0,42,0.00,,,0.00,VWS V14.00,2013-04-23 13:03:00,
2013-04-23 09:08:00,50.4,28.2,30.23,South,186,0.0,0.0,42,0.00,,,0.00,VWS V14.00,2013-04-23 13:08:00,
2013-04-23 09:13:00,50.7,27.9,30.23,SSW,203,0.0,0.0,41,0.00,,,0.00,VWS V14.00,2013-04-23 13:13:00,
2013-04-23 09:18:00,51.1,28.2,30.23,SW,220,0.0,0.0,41,0.00,,,0.00,VWS V14.00,2013-04-23 13:18:00,
2013-04-23 09:23:00,51.4,27.9,30.23,SW,233,0.0,0.0,40,0.00,,,0.00,VWS V14.00,2013-04-23 13:23:00,
2013-04-23 09:28:00,51.6,27.5,30.23,SW,229,3.6,3.6,39,0.00,,,0.00,VWS V14.00,2013-04-23 13:28:00,
2013-04-23 09:33:00,51.8,27.6,30.23,SW,229,0.0,0.0,39,0.00,,,0.00,VWS V14.00,2013-04-23 13:33:00,
2013-04-23 09:38:00,52.2,27.3,30.23,SW,218,0.0,0.0,38,0.00,,,0.00,VWS V14.00,2013-04-23 13:38:00,
2013-04-23 09:43:00,52.5,27.7,30.23,SW,233,0.0,3.1,38,0.00,,,0.00,VWS V14.00,2013-04-23 13:43:00,
2013-04-23 09:48:00,52.9,28.0,30.23,SW,234,2.2,2.7,38,0.00,,,0.00,VWS V14.00,2013-04-23 13:48:00,
2013-04-23 09:53:00,53.1,28.1,30.23,SW,234,0.0,0.0,38,0.00,,,0.00,VWS V14.00,2013-04-23 13:53:00,
2013-04-23 09:58:00,53.2,27.7,30.23,SW,219,2.7,3.1,37,0.00,,,0.00,VWS V14.00,2013-04-23 13:58:00,
2013-04-23 10:03:00,53.6,28.0,30.23,SW,220,0.0,0.0,37,0.00,,,0.00,VWS V14.00,2013-04-23 14:03:00,
2013-04-23 10:08:00,53.6,27.3,30.23,WSW,238,3.6,4.0,36,0.00,,,0.00,VWS V14.00,2013-04-23 14:08:00,
2013-04-23 10:13:00,54.1,27.8,30.23,WSW,245,0.0,0.0,36,0.00,,,0.00,VWS V14.00,2013-04-23 14:13:00,
2013-04-23 10:18:00,54.3,28.0,30.23,SW,235,2.7,4.0,36,0.00,,,0.00,VWS V14.00,2013-04-23 14:18:00,
2013-04-23 10:23:00,54.3,28.0,30.23,SW,233,3.1,4.0,36,0.00,,,0.00,VWS V14.00,2013-04-23 14:23:00,
2013-04-23 10:28:00,54.9,28.4,30.23,SW,233,4.0,4.9,36,0.00,,,0.00,VWS V14.00,2013-04-23 14:28:00,
2013-04-23 10:33:00,55.4,28.2,30.23,WNW,301,0.0,0.0,35,0.00,,,0.00,VWS V14.00,2013-04-23 14:33:00,
2013-04-23 10:38:00,55.9,28.7,30.23,SE,137,0.0,0.0,35,0.00,,,0.00,VWS V14.00,2013-04-23 14:38:00,
2013-04-23 10:43:00,55.9,28.7,30.23,WNW,294,0.0,0.0,35,0.00,,,0.00,VWS V14.00,2013-04-23 14:43:00,
2013-04-23 10:48:00,55.9,28.7,30.23,SW,215,0.0,0.0,35,0.00,,,0.00,VWS V14.00,2013-04-23 14:48:00,
2013-04-23 10:53:00,55.9,28.7,30.23,WSW,237,0.0,2.7,35,0.00,,,0.00,VWS V14.00,2013-04-23 14:53:00,
2013-04-23 10:58:00,55.9,28.7,30.23,WSW,247,0.0,0.0,35,0.00,,,0.00,VWS V14.00,2013-04-23 14:58:00,
2013-04-23 11:03:00,56.5,29.2,30.23,WSW,247,0.0,0.0,35,0.00,,,0.00,VWS V14.00,2013-04-23 15:03:00,
2013-04-23 11:08:00,57.0,29.7,30.23,WSW,247,0.0,0.0,35,0.00,,,0.00,VWS V14.00,2013-04-23 15:08:00,
2013-04-23 11:13:00,57.4,28.5,30.23,SW,224,0.0,0.0,33,0.00,,,0.00,VWS V14.00,2013-04-23 15:13:00,
2013-04-23 11:18:00,57.9,29.7,30.23,West,266,0.0,0.0,34,0.00,,,0.00,VWS V14.00,2013-04-23 15:18:00,
2013-04-23 11:23:00,58.1,27.6,30.23,SW,234,2.7,2.7,31,0.00,,,0.00,VWS V14.00,2013-04-23 15:23:00,
2013-04-23 11:28:00,58.1,27.6,30.23,SSW,192,0.0,0.0,31,0.00,,,0.00,VWS V14.00,2013-04-23 15:28:00,
2013-04-23 11:33:00,58.1,27.6,30.23,SW,234,0.0,3.6,31,0.00,,,0.00,VWS V14.00,2013-04-23 15:33:00,
2013-04-23 11:38:00,58.3,27.8,30.23,West,259,0.0,0.0,31,0.00,,,0.00,VWS V14.00,2013-04-23 15:38:00,
2013-04-23 11:43:00,58.8,29.0,30.23,NNW,335,2.7,2.7,32,0.00,,,0.00,VWS V14.00,2013-04-23 15:43:00,
2013-04-23 11:48:00,59.5,28.9,30.23,NNW,335,0.0,0.0,31,0.00,,,0.00,VWS V14.00,2013-04-23 15:48:00,
2013-04-23 11:53:00,59.9,28.4,30.23,SSW,207,0.0,3.1,30,0.00,,,0.00,VWS V14.00,2013-04-23 15:53:00,
2013-04-23 11:58:00,59.7,28.3,30.23,SW,224,0.0,0.0,30,0.00,,,0.00,VWS V14.00,2013-04-23 15:58:00,
2013-04-23 12:03:00,59.5,27.3,30.23,SW,227,0.0,0.0,29,0.00,,,0.00,VWS V14.00,2013-04-23 16:03:00,
2013-04-23 12:08:00,60.3,28.7,30.23,SW,230,0.0,0.0,30,0.00,,,0.00,VWS V14.00,2013-04-23 16:08:00,
2013-04-23 12:13:00,61.2,28.7,30.23,West,274,0.0,0.0,29,0.00,,,0.00,VWS V14.00,2013-04-23 16:13:00,
2013-04-23 12:18:00,61.3,27.1,30.23,SW,231,3.6,4.0,27,0.00,,,0.00,VWS V14.00,2013-04-23 16:18:00,
2013-04-23 12:23:00,61.5,28.1,30.23,SW,222,0.0,0.0,28,0.00,,,0.00,VWS V14.00,2013-04-23 16:23:00,
2013-04-23 12:28:00,61.9,27.6,30.23,WSW,246,0.0,0.0,27,0.00,,,0.00,VWS V14.00,2013-04-23 16:28:00,
2013-04-23 12:33:00,63.0,28.5,30.23,North,0,3.6,4.0,27,0.00,,,0.00,VWS V14.00,2013-04-23 16:33:00,
2013-04-23 12:38:00,64.4,28.8,30.20,WNW,303,0.0,0.0,26,0.00,,,0.00,VWS V14.00,2013-04-23 16:38:00,
2013-04-23 12:43:00,65.1,28.5,30.20,WNW,299,0.0,3.1,25,0.00,,,0.00,VWS V14.00,2013-04-23 16:43:00,
2013-04-23 12:48:00,65.5,28.8,30.20,SW,227,0.0,0.0,25,0.00,,,0.00,VWS V14.00,2013-04-23 16:48:00,
2013-04-23 12:53:00,65.1,28.5,30.20,SW,227,0.0,0.0,25,0.00,,,0.00,VWS V14.00,2013-04-23 16:53:00,
2013-04-23 12:58:00,65.1,28.5,30.20,SW,232,3.1,4.0,25,0.00,,,0.00,VWS V14.00,2013-04-23 16:58:00,
2013-04-23 13:03:00,65.1,28.5,30.20,SW,225,2.7,2.7,25,0.00,,,0.00,VWS V14.00,2013-04-23 17:03:00,
2013-04-23 13:08:00,65.5,27.8,30.17,NW,307,0.0,0.0,24,0.00,,,0.00,VWS V14.00,2013-04-23 17:08:00,
2013-04-23 13:13:00,66.4,28.5,30.17,West,274,3.1,3.1,24,0.00,,,0.00,VWS V14.00,2013-04-23 17:13:00,
2013-04-23 13:18:00,66.7,28.8,30.17,South,171,3.1,3.1,24,0.00,,,0.00,VWS V14.00,2013-04-23 17:18:00,
2013-04-23 13:23:00,66.7,28.8,30.17,SSW,193,0.0,3.1,24,0.00,,,0.00,VWS V14.00,2013-04-23 17:23:00,
2013-04-23 13:28:00,66.9,29.0,30.17,SW,224,2.7,3.1,24,0.00,,,0.00,VWS V14.00,2013-04-23 17:28:00,
2013-04-23 13:33:00,67.5,29.4,30.17,WNW,282,2.7,3.6,24,0.00,,,0.00,VWS V14.00,2013-04-23 17:33:00,
2013-04-23 13:38:00,68.4,29.1,30.17,SW,236,4.0,4.0,23,0.00,,,0.00,VWS V14.00,2013-04-23 17:38:00,
2013-04-23 13:43:00,67.6,29.6,30.17,WSW,246,3.6,3.6,24,0.00,,,0.00,VWS V14.00,2013-04-23 17:43:00,
2013-04-23 13:48:00,67.6,28.5,30.17,NW,323,0.0,0.0,23,0.00,,,0.00,VWS V14.00,2013-04-23 17:48:00,
2013-04-23 13:53:00,68.2,29.0,30.14,West,274,0.0,0.0,23,0.00,,,0.00,VWS V14.00,2013-04-23 17:53:00,
2013-04-23 13:58:00,68.5,29.3,30.14,NNW,340,0.0,2.7,23,0.00,,,0.00,VWS V14.00,2013-04-23 17:58:00,
2013-04-23 14:03:00,69.6,30.2,30.14,West,265,3.6,3.6,23,0.00,,,0.00,VWS V14.00,2013-04-23 18:03:00,
2013-04-23 14:08:00,69.8,30.4,30.14,West,264,0.0,2.7,23,0.00,,,0.00,VWS V14.00,2013-04-23 18:08:00,
2013-04-23 14:13:00,70.5,31.0,30.14,North,0,2.2,3.1,23,0.00,,,0.00,VWS V14.00,2013-04-23 18:13:00,
2013-04-23 14:18:00,71.2,30.5,30.14,SSW,199,0.0,0.0,22,0.00,,,0.00,VWS V14.00,2013-04-23 18:18:00,
2013-04-23 14:23:00,70.7,30.0,30.14,NNW,330,0.0,0.0,22,0.00,,,0.00,VWS V14.00,2013-04-23 18:23:00,
2013-04-23 14:28:00,70.9,31.3,30.14,WSW,251,0.0,0.0,23,0.00,,,0.00,VWS V14.00,2013-04-23 18:28:00,
2013-04-23 14:34:00,71.2,30.5,30.14,South,171,0.0,0.0,22,0.00,,,0.00,VWS V14.00,2013-04-23 18:34:00,
2013-04-23 14:39:00,71.8,30.9,30.14,WNW,286,2.2,2.2,22,0.00,,,0.00,VWS V14.00,2013-04-23 18:39:00,
2013-04-23 14:44:00,72.3,31.4,30.14,WSW,253,2.2,2.7,22,0.00,,,0.00,VWS V14.00,2013-04-23 18:44:00,
2013-04-23 14:49:00,72.7,31.7,30.14,NNW,335,3.1,3.1,22,0.00,,,0.00,VWS V14.00,2013-04-23 18:49:00,
2013-04-23 14:54:00,72.7,30.5,30.11,North,0,3.6,3.6,21,0.00,,,0.00,VWS V14.00,2013-04-23 18:54:00,
2013-04-23 14:59:00,72.5,31.5,30.11,North,353,3.1,3.1,22,0.00,,,0.00,VWS V14.00,2013-04-23 18:59:00,
2013-04-23 15:04:00,72.1,30.1,30.11,SW,229,0.0,0.0,21,0.00,,,0.00,VWS V14.00,2013-04-23 19:04:00,
2013-04-23 15:09:00,72.9,31.8,30.11,NW,307,4.0,4.0,22,0.00,,,0.00,VWS V14.00,2013-04-23 19:09:00,
2013-04-23 15:14:00,73.6,31.3,30.11,WNW,287,3.6,3.6,21,0.00,,,0.00,VWS V14.00,2013-04-23 19:14:00,
2013-04-23 15:19:00,74.3,31.9,30.11,West,273,0.0,0.0,21,0.00,,,0.00,VWS V14.00,2013-04-23 19:19:00,
2013-04-23 15:24:00,73.8,27.6,30.11,SW,220,3.1,3.1,18,0.00,,,0.00,VWS V14.00,2013-04-23 19:24:00,
2013-04-23 15:29:00,72.9,28.2,30.11,SW,230,0.0,0.0,19,0.00,,,0.00,VWS V14.00,2013-04-23 19:29:00,
2013-04-23 15:34:00,73.0,30.8,30.11,NW,321,2.7,3.1,21,0.00,,,0.00,VWS V14.00,2013-04-23 19:34:00,
2013-04-23 15:39:00,73.2,31.0,30.11,North,350,3.6,4.0,21,0.00,,,0.00,VWS V14.00,2013-04-23 19:39:00,
2013-04-23 15:44:00,73.2,31.0,30.11,NNE,15,0.0,2.7,21,0.00,,,0.00,VWS V14.00,2013-04-23 19:44:00,
2013-04-23 15:49:00,73.4,27.4,30.11,North,353,4.0,4.0,18,0.00,,,0.00,VWS V14.00,2013-04-23 19:49:00,
2013-04-23 15:54:00,73.4,27.4,30.08,SSE,147,0.0,0.0,18,0.00,,,0.00,VWS V14.00,2013-04-23 19:54:00,
2013-04-23 15:59:00,72.0,27.5,30.08,NE,55,2.2,3.1,19,0.00,,,0.00,VWS V14.00,2013-04-23 19:59:00,
2013-04-23 16:04:00,72.1,30.1,30.08,ESE,113,0.0,0.0,21,0.00,,,0.00,VWS V14.00,2013-04-23 20:04:00,
2013-04-23 16:09:00,72.5,30.4,30.08,North,7,0.0,0.0,21,0.00,,,0.00,VWS V14.00,2013-04-23 20:09:00,
2013-04-23 16:14:00,73.0,30.8,30.08,NNW,345,3.1,3.1,21,0.00,,,0.00,VWS V14.00,2013-04-23 20:14:00,
2013-04-23 16:19:00,73.0,30.8,30.08,NNE,25,0.0,0.0,21,0.00,,,0.00,VWS V14.00,2013-04-23 20:19:00,
2013-04-23 16:24:00,72.5,27.9,30.08,ESE,111,0.0,0.0,19,0.00,,,0.00,VWS V14.00,2013-04-23 20:24:00,
2013-04-23 16:29:00,72.7,30.5,30.08,West,271,0.0,0.0,21,0.00,,,0.00,VWS V14.00,2013-04-23 20:29:00,
2013-04-23 16:34:00,72.3,30.2,30.08,North,0,0.0,0.0,21,0.00,,,0.00,VWS V14.00,2013-04-23 20:34:00,
2013-04-23 16:39:00,72.3,30.2,30.08,NNW,344,0.0,0.0,21,0.00,,,0.00,VWS V14.00,2013-04-23 20:39:00,
2013-04-23 16:44:00,72.1,27.6,30.08,NNE,19,0.0,0.0,19,0.00,,,0.00,VWS V14.00,2013-04-23 20:44:00,
2013-04-23 16:49:00,72.5,30.4,30.08,West,279,0.0,0.0,21,0.00,,,0.00,VWS V14.00,2013-04-23 20:49:00,
2013-04-23 16:54:00,72.9,30.7,30.08,NW,308,3.1,3.1,21,0.00,,,0.00,VWS V14.00,2013-04-23 20:54:00,
2013-04-23 16:59:00,73.0,30.8,30.08,North,357,3.6,3.6,21,0.00,,,0.00,VWS V14.00,2013-04-23 20:59:00,
2013-04-23 17:04:00,73.2,28.5,30.08,North,0,3.1,3.6,19,0.00,,,0.00,VWS V14.00,2013-04-23 21:04:00,
2013-04-23 17:09:00,72.5,27.9,30.08,East,93,0.0,0.0,19,0.00,,,0.00,VWS V14.00,2013-04-23 21:09:00,
2013-04-23 17:14:00,71.8,27.3,30.08,East,93,0.0,0.0,19,0.00,,,0.00,VWS V14.00,2013-04-23 21:14:00,
2013-04-23 17:19:00,71.6,29.6,30.08,ENE,78,0.0,0.0,21,0.00,,,0.00,VWS V14.00,2013-04-23 21:19:00,
2013-04-23 17:24:00,71.6,29.6,30.05,North,357,3.6,3.6,21,0.00,,,0.00,VWS V14.00,2013-04-23 21:24:00,
2013-04-23 17:29:00,71.4,30.6,30.05,North,357,0.0,0.0,22,0.00,,,0.00,VWS V14.00,2013-04-23 21:29:00,
2013-04-23 17:34:00,71.4,27.0,30.05,North,357,0.0,0.0,19,0.00,,,0.00,VWS V14.00,2013-04-23 21:34:00,
2013-04-23 17:39:00,71.4,30.6,30.05,North,0,0.0,0.0,22,0.00,,,0.00,VWS V14.00,2013-04-23 21:39:00,
2013-04-23 17:44:00,71.6,29.6,30.05,North,353,0.0,0.0,21,0.00,,,0.00,VWS V14.00,2013-04-23 21:44:00,
2013-04-23 17:49:00,71.6,29.6,30.05,North,0,0.0,0.0,21,0.00,,,0.00,VWS V14.00,2013-04-23 21:49:00,
2013-04-23 17:54:00,71.2,26.9,30.05,North,0,0.0,0.0,19,0.00,,,0.00,VWS V14.00,2013-04-23 21:54:00,
2013-04-23 17:59:00,70.7,30.0,30.05,North,0,0.0,0.0,22,0.00,,,0.00,VWS V14.00,2013-04-23 21:59:00,
2013-04-23 18:04:00,70.2,29.6,30.05,North,0,0.0,0.0,22,0.00,,,0.00,VWS V14.00,2013-04-23 22:04:00,
2013-04-23 18:09:00,69.8,29.3,30.05,North,0,0.0,0.0,22,0.00,,,0.00,VWS V14.00,2013-04-23 22:09:00,
2013-04-23 18:14:00,68.9,28.5,30.05,North,0,0.0,0.0,22,0.00,,,0.00,VWS V14.00,2013-04-23 22:14:00,
2013-04-23 18:19:00,68.0,27.8,30.05,North,0,0.0,0.0,22,0.00,,,0.00,VWS V14.00,2013-04-23 22:19:00,
2013-04-23 18:24:00,67.5,28.4,30.05,NNE,18,0.0,0.0,23,0.00,,,0.00,VWS V14.00,2013-04-23 22:24:00,
2013-04-23 18:29:00,67.3,28.2,30.05,NNE,18,0.0,0.0,23,0.00,,,0.00,VWS V14.00,2013-04-23 22:29:00,
2013-04-23 18:34:00,67.3,29.3,30.05,NNE,18,0.0,0.0,24,0.00,,,0.00,VWS V14.00,2013-04-23 22:34:00,
2013-04-23 18:39:00,67.3,29.3,30.08,NNE,18,0.0,0.0,24,0.00,,,0.00,VWS V14.00,2013-04-23 22:39:00,
2013-04-23 18:44:00,67.1,29.1,30.08,NW,320,0.0,0.0,24,0.00,,,0.00,VWS V14.00,2013-04-23 22:44:00,
2013-04-23 18:49:00,67.1,28.1,30.08,NW,304,0.0,0.0,23,0.00,,,0.00,VWS V14.00,2013-04-23 22:49:00,
2013-04-23 18:54:00,67.1,28.1,30.05,NNW,333,0.0,0.0,23,0.00,,,0.00,VWS V14.00,2013-04-23 22:54:00,
2013-04-23 18:59:00,66.9,27.9,30.05,NNW,328,0.0,0.0,23,0.00,,,0.00,VWS V14.00,2013-04-23 22:59:00,
2013-04-23 19:04:00,66.6,28.7,30.05,NNW,328,0.0,0.0,24,0.00,,,0.00,VWS V14.00,2013-04-23 23:04:00,
2013-04-23 19:09:00,66.2,28.4,30.05,NNW,328,0.0,0.0,24,0.00,,,0.00,VWS V14.00,2013-04-23 23:09:00,
2013-04-23 19:14:00,65.8,28.1,30.05,NNW,328,0.0,0.0,24,0.00,,,0.00,VWS V14.00,2013-04-23 23:14:00,
2013-04-23 19:19:00,65.3,28.6,30.05,NNW,328,0.0,0.0,25,0.00,,,0.00,VWS V14.00,2013-04-23 23:19:00,
2013-04-23 19:24:00,64.6,29.0,30.08,NNW,328,0.0,0.0,26,0.00,,,0.00,VWS V14.00,2013-04-23 23:24:00,
2013-04-23 19:29:00,63.9,30.1,30.08,NNW,328,0.0,0.0,28,0.00,,,0.00,VWS V14.00,2013-04-23 23:29:00,
2013-04-23 19:34:00,63.3,30.5,30.08,NNW,328,0.0,0.0,29,0.00,,,0.00,VWS V14.00,2013-04-23 23:34:00,
2013-04-23 19:39:00,63.0,31.1,30.08,NNW,328,0.0,0.0,30,0.00,,,0.00,VWS V14.00,2013-04-23 23:39:00,
2013-04-23 19:44:00,62.6,30.8,30.08,NNW,328,0.0,0.0,30,0.00,,,0.00,VWS V14.00,2013-04-23 23:44:00,
2013-04-23 19:49:00,62.4,31.4,30.08,NNW,328,0.0,0.0,31,0.00,,,0.00,VWS V14.00,2013-04-23 23:49:00,
2013-04-23 19:54:00,62.2,31.2,30.08,NNW,328,0.0,0.0,31,0.00,,,0.00,VWS V14.00,2013-04-23 23:54:00,
2013-04-23 19:59:00,62.1,30.3,30.08,NNW,328,0.0,0.0,30,0.00,,,0.00,VWS V14.00,2013-04-23 23:59:00,
2013-04-23 20:04:00,62.1,29.5,30.08,NNW,328,0.0,0.0,29,0.00,,,0.00,VWS V14.00,2013-04-24 00:04:00,
2013-04-23 20:09:00,61.9,29.3,30.08,NNW,328,0.0,0.0,29,0.00,,,0.00,VWS V14.00,2013-04-24 00:09:00,
2013-04-23 20:14:00,61.7,30.0,30.08,NNW,328,0.0,0.0,30,0.00,,,0.00,VWS V14.00,2013-04-24 00:14:00,
2013-04-23 20:19:00,61.3,30.5,30.08,NNW,328,0.0,0.0,31,0.00,,,0.00,VWS V14.00,2013-04-24 00:19:00,
2013-04-23 20:24:00,61.2,30.3,30.08,NNW,328,0.0,0.0,31,0.00,,,0.00,VWS V14.00,2013-04-24 00:24:00,
2013-04-23 20:29:00,61.0,30.2,30.08,NNW,328,0.0,0.0,31,0.00,,,0.00,VWS V14.00,2013-04-24 00:29:00,
2013-04-23 20:34:00,61.0,30.2,30.08,NNW,328,0.0,0.0,31,0.00,,,0.00,VWS V14.00,2013-04-24 00:34:00,
2013-04-23 20:39:00,61.0,30.2,30.08,NNW,328,0.0,0.0,31,0.00,,,0.00,VWS V14.00,2013-04-24 00:39:00,
2013-04-23 20:44:00,60.6,31.4,30.08,NNW,329,0.0,0.0,33,0.00,,,0.00,VWS V14.00,2013-04-24 00:44:00,
2013-04-23 20:49:00,60.1,31.6,30.08,NNW,346,0.0,0.0,34,0.00,,,0.00,VWS V14.00,2013-04-24 00:49:00,
2013-04-23 20:54:00,59.7,32.0,30.08,NNW,346,0.0,0.0,35,0.00,,,0.00,VWS V14.00,2013-04-24 00:54:00,
2013-04-23 20:59:00,59.4,31.7,30.08,NNW,346,0.0,0.0,35,0.00,,,0.00,VWS V14.00,2013-04-24 00:59:00,
2013-04-23 21:04:00,59.2,31.6,30.08,North,353,0.0,0.0,35,0.00,,,0.00,VWS V14.00,2013-04-24 01:04:00,
2013-04-23 21:09:00,59.2,31.6,30.08,North,353,0.0,0.0,35,0.00,,,0.00,VWS V14.00,2013-04-24 01:09:00,
2013-04-23 21:14:00,59.0,32.1,30.08,North,353,0.0,0.0,36,0.00,,,0.00,VWS V14.00,2013-04-24 01:14:00,
2013-04-23 21:19:00,58.8,32.0,30.08,North,0,0.0,0.0,36,0.00,,,0.00,VWS V14.00,2013-04-24 01:19:00,
2013-04-23 21:24:00,58.6,32.5,30.11,North,0,0.0,0.0,37,0.00,,,0.00,VWS V14.00,2013-04-24 01:24:00,
2013-04-23 21:29:00,58.3,32.2,30.11,North,0,0.0,0.0,37,0.00,,,0.00,VWS V14.00,2013-04-24 01:29:00,
2013-04-23 21:34:00,58.1,32.0,30.11,North,0,0.0,0.0,37,0.00,,,0.00,VWS V14.00,2013-04-24 01:34:00,
2013-04-23 21:39:00,58.1,32.0,30.11,North,0,0.0,0.0,37,0.00,,,0.00,VWS V14.00,2013-04-24 01:39:00,
2013-04-23 21:44:00,58.5,32.3,30.11,North,0,0.0,0.0,37,0.00,,,0.00,VWS V14.00,2013-04-24 01:44:00,
2013-04-23 21:49:00,58.8,32.0,30.11,North,0,0.0,0.0,36,0.00,,,0.00,VWS V14.00,2013-04-24 01:49:00,
2013-04-23 21:54:00,58.6,31.8,30.11,North,0,0.0,0.0,36,0.00,,,0.00,VWS V14.00,2013-04-24 01:54:00,
2013-04-23 21:59:00,58.6,31.8,30.11,North,0,0.0,0.0,36,0.00,,,0.00,VWS V14.00,2013-04-24 01:59:00,
2013-04-23 22:04:00,58.6,31.8,30.08,North,0,3.1,3.6,36,0.00,,,0.00,VWS V14.00,2013-04-24 02:04:00,
2013-04-23 22:09:00,58.8,32.0,30.08,ENE,65,3.6,3.6,36,0.00,,,0.00,VWS V14.00,2013-04-24 02:09:00,
2013-04-23 22:14:00,58.8,32.0,30.08,NNE,14,2.2,2.7,36,0.00,,,0.00,VWS V14.00,2013-04-24 02:14:00,
2013-04-23 22:19:00,58.8,32.0,30.08,North,7,0.0,2.7,36,0.00,,,0.00,VWS V14.00,2013-04-24 02:19:00,
2013-04-23 22:25:00,59.0,31.4,30.08,North,353,2.7,2.7,35,0.00,,,0.00,VWS V14.00,2013-04-24 02:25:00,
2013-04-23 22:30:00,58.8,32.0,30.08,North,357,0.0,0.0,36,0.00,,,0.00,VWS V14.00,2013-04-24 02:30:00,
2013-04-23 22:35:00,58.6,31.8,30.08,North,0,3.6,3.6,36,0.00,,,0.00,VWS V14.00,2013-04-24 02:35:00,
2013-04-23 22:40:00,58.6,31.8,30.08,North,0,4.0,4.0,36,0.00,,,0.00,VWS V14.00,2013-04-24 02:40:00,
2013-04-23 22:45:00,58.6,31.8,30.08,North,8,3.1,3.1,36,0.00,,,0.00,VWS V14.00,2013-04-24 02:45:00,
2013-04-23 22:50:00,58.6,31.8,30.08,North,1,3.1,3.6,36,0.00,,,0.00,VWS V14.00,2013-04-24 02:50:00,
2013-04-23 22:56:00,58.5,31.6,30.08,North,6,2.7,2.7,36,0.00,,,0.00,VWS V14.00,2013-04-24 02:56:00,
2013-04-23 23:01:00,58.5,31.6,30.08,NNE,23,3.1,3.1,36,0.00,,,0.00,VWS V14.00,2013-04-24 03:01:00,
2013-04-23 23:06:00,58.5,32.3,30.08,NNE,23,0.0,0.0,37,0.00,,,0.00,VWS V14.00,2013-04-24 03:06:00,
2013-04-23 23:11:00,58.3,32.2,30.08,NE,37,0.0,0.0,37,0.00,,,0.00,VWS V14.00,2013-04-24 03:11:00,
2013-04-23 23:16:00,58.1,32.0,30.08,NE,37,0.0,0.0,37,0.00,,,0.00,VWS V14.00,2013-04-24 03:16:00,
2013-04-23 23:21:00,57.9,31.8,30.08,NNE,24,0.0,0.0,37,0.00,,,0.00,VWS V14.00,2013-04-24 03:21:00,
2013-04-23 23:26:00,57.6,31.5,30.08,NNE,21,0.0,0.0,37,0.00,,,0.00,VWS V14.00,2013-04-24 03:26:00,
2013-04-23 23:31:00,57.4,31.3,30.08,NNE,21,0.0,0.0,37,0.00,,,0.00,VWS V14.00,2013-04-24 03:31:00,
2013-04-23 23:37:00,57.2,31.8,30.08,NNE,21,0.0,0.0,38,0.00,,,0.00,VWS V14.00,2013-04-24 03:37:00,
2013-04-23 23:42:00,56.8,32.2,30.08,NNE,21,0.0,0.0,39,0.00,,,0.00,VWS V14.00,2013-04-24 03:42:00,
2013-04-23 23:47:00,56.3,32.9,30.08,NNE,21,0.0,0.0,41,0.00,,,0.00,VWS V14.00,2013-04-24 03:47:00,
2013-04-23 23:52:00,55.9,33.2,30.11,NNE,21,0.0,0.0,42,0.00,,,0.00,VWS V14.00,2013-04-24 03:52:00,
2013-04-23 23:57:00,55.6,33.5,30.11,NNE,21,0.0,0.0,43,0.00,,,0.00,VWS V14.00,2013-04-24 03:57:00,